Ortonville, MN

2:57 AM CST on December 14, 2017 (GMT -0600)
Ortonville Municipal-Martinson

Weather History for KVVV - October, 2012

Change the Weather History Date:

Tuesday, October 16, 2012

  Actual Average (KAQP) Record (KAQP)
Temperature  
Mean Temperature 62 °F -  
Max Temperature 73 °F 55 °F 75 °F (2012)
Min Temperature 51 °F 34 °F 24 °F (2003)
Degree Days  
Heating Degree Days 3    
Growing Degree Days 12 (Base 50)    
Moisture  
Dew Point 42 °F    
Average Humidity 48    
Maximum Humidity 67    
Minimum Humidity 33    
Precipitation  
Precipitation 0.00 in - - ()
Sea Level Pressure  
Sea Level Pressure 29.47 in    
Wind  
Wind Speed 4 mph (West)    
Max Wind Speed 14 mph    
Max Gust Speed -    
Visibility 10 miles    
Events Rain    
Averages and records for this station are not official NWS values.
T = Trace of Precipitation, MM = Missing Value Source: NWS Daily Summary

Daily Weather History Graph

Daily Weather History Graph

Search for Another Location

Airport or City:

Trip Planner

Search our weather history database for the weather conditions in past years. The results will help you decide how hot, cold, wet, or windy it might be!

Date:

Astronomy

Oct. 16, 2012 Rise Set
Actual Time 7:43 AM CDT 6:37 PM CDT
Civil Twilight 7:13 AM CDT 7:07 PM CDT
Nautical Twilight 6:39 AM CDT 7:41 PM CDT
Astronomical Twilight 6:05 AM CDT 8:15 PM CDT
Moon 9:14 AM CDT (10/16) 7:16 PM CDT (10/16)
Length of Visible Light 11h 53m
Length of Day
10h 53m
New Moon, 2% of the Moon is Illuminated
Oct 16
New Moon
Oct 21
First Quarter
Oct 29
Full
Nov 6
Last Quarter
Nov 13
New

Hourly Weather History & Observations

Time (CDT) Temp. Dew Point Humidity Pressure Visibility Wind Dir Wind Speed Gust Speed Precip Events Conditions
12:03 AM 59.0 °F 37.4 °F 45% 29.61 in 10.0 mi SW 5.8 mph - N/A   Scattered Clouds
12:24 AM 60.8 °F 37.4 °F 42% 29.61 in 10.0 mi SSW 6.9 mph - N/A   Clear
12:44 AM 62.6 °F 37.4 °F 39% 29.61 in 10.0 mi WSW 3.5 mph - N/A   Clear
1:03 AM 62.6 °F 37.4 °F 39% 29.62 in 10.0 mi West 8.1 mph - N/A   Clear
1:24 AM 60.8 °F 37.4 °F 42% 29.62 in 10.0 mi West 3.5 mph - N/A   Clear
1:44 AM 60.8 °F 37.4 °F 42% 29.62 in 10.0 mi Calm Calm - N/A   Clear
2:03 AM 60.8 °F 37.4 °F 42% 29.61 in 10.0 mi Calm Calm - N/A   Clear
2:24 AM 60.8 °F 37.4 °F 42% 29.60 in 10.0 mi Calm Calm - N/A   Clear
2:44 AM 59.0 °F 37.4 °F 45% 29.59 in 10.0 mi Calm Calm - N/A   Clear
3:03 AM 60.8 °F 37.4 °F 42% 29.58 in 10.0 mi Calm Calm - N/A   Clear
3:24 AM 57.2 °F 37.4 °F 48% 29.58 in 10.0 mi Calm Calm - N/A   Clear
3:44 AM 59.0 °F 37.4 °F 45% 29.58 in 10.0 mi Calm Calm - N/A   Clear
4:03 AM 55.4 °F 39.2 °F 54% 29.55 in 10.0 mi NE 8.1 mph - N/A Rain Light Rain
4:24 AM 57.2 °F 39.2 °F 51% 29.56 in 10.0 mi NNW 9.2 mph - N/A   Mostly Cloudy
4:44 AM 57.2 °F 39.2 °F 51% 29.56 in 10.0 mi SSE 5.8 mph - N/A   Mostly Cloudy
5:03 AM 57.2 °F 39.2 °F 51% 29.56 in 10.0 mi WSW 4.6 mph - N/A   Scattered Clouds
5:24 AM 60.8 °F 39.2 °F 45% 29.55 in 10.0 mi North 6.9 mph - N/A   Clear
5:44 AM 59.0 °F 41.0 °F 51% 29.53 in 10.0 mi North 13.8 mph - N/A   Scattered Clouds
6:04 AM 59.0 °F 39.2 °F 48% 29.55 in 10.0 mi WSW 4.6 mph - N/A   Clear
6:24 AM 57.2 °F 41.0 °F 55% 29.55 in 10.0 mi WSW 4.6 mph - N/A   Clear
6:43 AM 57.2 °F 41.0 °F 55% 29.54 in 10.0 mi NW 4.6 mph - N/A   Clear
7:04 AM 55.4 °F 39.2 °F 54% 29.54 in 10.0 mi Calm Calm - N/A   Clear
8:04 AM 51.8 °F 41.0 °F 67% 29.54 in 10.0 mi Calm Calm - N/A   Clear
8:24 AM 51.8 °F 41.0 °F 67% 29.54 in 10.0 mi Calm Calm - N/A   Clear
8:44 AM 53.6 °F 42.8 °F 67% 29.54 in 10.0 mi Calm Calm - N/A   Clear
9:04 AM 53.6 °F 42.8 °F 67% 29.54 in 10.0 mi West 3.5 mph - N/A   Clear
9:24 AM 53.6 °F 42.8 °F 67% 29.54 in 10.0 mi West 4.6 mph - N/A   Clear
9:44 AM 55.4 °F 42.8 °F 63% 29.54 in 10.0 mi WNW 5.8 mph - N/A   Clear
10:04 AM 59.0 °F 44.6 °F 59% 29.54 in 10.0 mi NW 6.9 mph - N/A   Clear
10:24 AM 62.6 °F 44.6 °F 52% 29.53 in 10.0 mi NW 4.6 mph - N/A   Clear
10:44 AM 62.6 °F 46.4 °F 55% 29.52 in 10.0 mi NNW 4.6 mph - N/A   Clear
11:03 AM 64.4 °F 46.4 °F 52% 29.52 in 10.0 mi NW 5.8 mph - N/A   Clear
11:24 AM 66.2 °F 46.4 °F 49% 29.52 in 10.0 mi NW 6.9 mph - N/A   Clear
11:44 AM 66.2 °F 44.6 °F 46% 29.51 in 10.0 mi NNW 6.9 mph - N/A   Clear
12:04 PM 66.2 °F 44.6 °F 46% 29.50 in 10.0 mi NW 4.6 mph - N/A   Clear
12:24 PM 68.0 °F 44.6 °F 43% 29.50 in 10.0 mi WNW 5.8 mph - N/A   Clear
12:44 PM 68.0 °F 44.6 °F 43% 29.48 in 10.0 mi NW 4.6 mph - N/A   Clear
1:03 PM 69.8 °F 44.6 °F 40% 29.48 in 10.0 mi WNW 5.8 mph - N/A   Clear
1:24 PM 69.8 °F 44.6 °F 40% 29.46 in 10.0 mi NW 5.8 mph - N/A   Clear
1:44 PM 71.6 °F 42.8 °F 35% 29.45 in 10.0 mi Calm Calm - N/A   Clear
2:03 PM 71.6 °F 42.8 °F 35% 29.43 in 10.0 mi Calm Calm - N/A   Clear
2:24 PM 71.6 °F 42.8 °F 35% 29.43 in 10.0 mi North 4.6 mph - N/A   Clear
2:44 PM 71.6 °F 42.8 °F 35% 29.43 in 10.0 mi NNE 4.6 mph - N/A   Clear
3:03 PM 71.6 °F 42.8 °F 35% 29.43 in 10.0 mi Calm Calm - N/A   Clear
3:14 PM 71.6 °F 42.8 °F 35% 29.42 in 10.0 mi Calm Calm - N/A   Scattered Clouds
3:34 PM 71.6 °F 42.8 °F 35% 29.41 in 10.0 mi NNW 3.5 mph - N/A   Scattered Clouds
3:54 PM 73.4 °F 42.8 °F 33% 29.38 in 10.0 mi ESE 3.5 mph - N/A   Clear
4:14 PM 73.4 °F 42.8 °F 33% 29.37 in 10.0 mi Calm Calm - N/A   Clear
4:34 PM 71.6 °F 42.8 °F 35% 29.38 in 10.0 mi Calm Calm - N/A   Scattered Clouds
4:54 PM 71.6 °F 42.8 °F 35% 29.38 in 10.0 mi Calm Calm - N/A   Mostly Cloudy
5:14 PM 71.6 °F 44.6 °F 38% 29.38 in 10.0 mi West 4.6 mph - N/A   Overcast
5:34 PM 69.8 °F 44.6 °F 40% 29.38 in 10.0 mi Calm Calm - N/A   Overcast
5:53 PM 69.8 °F 44.6 °F 40% 29.37 in 10.0 mi Calm Calm - N/A   Overcast
6:14 PM 69.8 °F 44.6 °F 40% 29.37 in 10.0 mi Calm Calm - N/A   Overcast
6:34 PM 68.0 °F 44.6 °F 43% 29.37 in 10.0 mi Calm Calm - N/A   Overcast
6:53 PM 66.2 °F 44.6 °F 46% 29.37 in 10.0 mi Calm Calm - N/A   Overcast
7:14 PM 66.2 °F 44.6 °F 46% 29.37 in 10.0 mi Calm Calm - N/A   Overcast
7:34 PM 64.4 °F 44.6 °F 49% 29.37 in 10.0 mi WSW 4.6 mph - N/A   Mostly Cloudy
7:53 PM 64.4 °F 44.6 °F 49% 29.36 in 10.0 mi Calm Calm - N/A   Scattered Clouds
8:14 PM 64.4 °F 42.8 °F 45% 29.35 in 10.0 mi Calm Calm - N/A   Clear
8:34 PM 60.8 °F 42.8 °F 52% 29.32 in 10.0 mi East 3.5 mph - N/A   Clear
8:54 PM 57.2 °F 42.8 °F 59% 29.32 in 10.0 mi East 4.6 mph - N/A   Clear
9:14 PM 57.2 °F 42.8 °F 59% 29.32 in 10.0 mi South 4.6 mph - N/A   Clear
9:33 PM 57.2 °F 42.8 °F 59% 29.34 in 10.0 mi SW 5.8 mph - N/A   Clear
9:54 PM 57.2 °F 42.8 °F 59% 29.33 in 10.0 mi SW 3.5 mph - N/A   Clear
10:14 PM 57.2 °F 42.8 °F 59% 29.33 in 10.0 mi SSW 3.5 mph - N/A   Clear
10:33 PM 59.0 °F 42.8 °F 55% 29.32 in 10.0 mi SSW 3.5 mph - N/A   Clear
10:54 PM 57.2 °F 42.8 °F 59% 29.31 in 10.0 mi SSW 3.5 mph - N/A   Clear
11:14 PM 57.2 °F 41.0 °F 55% 29.30 in 10.0 mi Calm Calm - N/A   Clear
11:33 PM 55.4 °F 41.0 °F 58% 29.29 in 10.0 mi Calm Calm - N/A   Clear
11:54 PM 53.6 °F 41.0 °F 62% 29.28 in 10.0 mi SE 5.8 mph - N/A   Clear